Terminal Aerodrome Forecast
Issued by NWS Sterling, VA

Current Version | Previous Version | Text Only | Print | Product List | Glossary On
Versions: 1 2 3 4 5 6 7 8 9 10 11 12
069
FTUS41 KLWX 262341 AAA
TAFCHO
TAF AMD
KCHO 262341Z 2700/2724 20005KT P6SM VCTS SCT070CB
     FM270200 VRB03KT P6SM SCT070
     FM270600 VRB03KT P6SM SCT060
     FM271200 VRB03KT P6SM SCT060
     FM272000 18008KT P6SM BKN060
     FM272300 18006KT P6SM SCT060=

USA.gov is the U.S. government's official web portal to all federal, state and local government web resources and services.